sensor_id;sensor_type;location;lat;lon;timestamp;temperature;humidity
13446;DHT22;6795;51.232;3.764;2023-10-09T08:16:29;13.80;99.90
13446;DHT22;6795;51.232;3.764;2023-10-09T08:19:06;18.70;99.90
13446;DHT22;6795;51.232;3.764;2023-10-09T08:21:59;18.80;99.90
13446;DHT22;6795;51.232;3.764;2023-10-09T08:25:05;19.00;99.90
13446;DHT22;6795;51.232;3.764;2023-10-09T08:27:34;19.10;99.90
13446;DHT22;6795;51.232;3.764;2023-10-09T08:30:23;19.20;99.90
13446;DHT22;6795;51.232;3.764;2023-10-09T08:32:55;19.50;99.90
13446;DHT22;6795;51.232;3.764;2023-10-09T08:35:36;19.70;99.90
13446;DHT22;6795;51.232;3.764;2023-10-09T08:38:16;19.50;99.90
13446;DHT22;6795;51.232;3.764;2023-10-09T08:40:51;19.60;99.90
13446;DHT22;6795;51.232;3.764;2023-10-09T08:43:26;19.40;99.90
13446;DHT22;6795;51.232;3.764;2023-10-09T08:46:00;19.40;99.90
13446;DHT22;6795;51.232;3.764;2023-10-09T08:48:30;19.40;99.90
13446;DHT22;6795;51.232;3.764;2023-10-09T08:51:00;19.40;99.90
13446;DHT22;6795;51.232;3.764;2023-10-09T08:53:34;19.60;99.90
13446;DHT22;6795;51.232;3.764;2023-10-09T08:56:03;19.70;99.90
13446;DHT22;6795;51.232;3.764;2023-10-09T08:58:32;19.80;99.90
13446;DHT22;6795;51.232;3.764;2023-10-09T09:01:04;19.80;99.90
13446;DHT22;6795;51.232;3.764;2023-10-09T09:03:39;20.00;99.90
13446;DHT22;6795;51.232;3.764;2023-10-09T09:06:12;20.20;99.90
13446;DHT22;6795;51.232;3.764;2023-10-09T09:08:43;20.30;99.90
13446;DHT22;6795;51.232;3.764;2023-10-09T09:11:14;20.50;99.90
13446;DHT22;6795;51.232;3.764;2023-10-09T09:13:45;20.50;99.90
13446;DHT22;6795;51.232;3.764;2023-10-09T09:42:28;20.50;99.90
13446;DHT22;6795;51.232;3.764;2023-10-09T09:45:01;20.90;99.90
13446;DHT22;6795;51.232;3.764;2023-10-09T09:47:31;21.10;99.90
13446;DHT22;6795;51.232;3.764;2023-10-09T09:50:05;21.30;99.90
13446;DHT22;6795;51.232;3.764;2023-10-09T09:52:51;21.40;99.90
13446;DHT22;6795;51.232;3.764;2023-10-09T09:55:32;21.60;99.90
13446;DHT22;6795;51.232;3.764;2023-10-09T09:58:03;21.80;99.90
13446;DHT22;6795;51.232;3.764;2023-10-09T10:00:34;21.70;99.90
13446;DHT22;6795;51.232;3.764;2023-10-09T10:03:12;21.70;99.90
13446;DHT22;6795;51.232;3.764;2023-10-09T10:05:46;21.60;99.90
13446;DHT22;6795;51.232;3.764;2023-10-09T10:08:19;21.50;99.90
13446;DHT22;6795;51.232;3.764;2023-10-09T10:10:48;21.50;99.90
13446;DHT22;6795;51.232;3.764;2023-10-09T10:13:56;21.40;99.90
13446;DHT22;6795;51.232;3.764;2023-10-09T10:16:27;21.50;99.90
13446;DHT22;6795;51.232;3.764;2023-10-09T10:19:03;21.50;99.90
13446;DHT22;6795;51.232;3.764;2023-10-09T10:21:49;21.50;99.90
13446;DHT22;6795;51.232;3.764;2023-10-09T10:24:42;21.50;99.90
13446;DHT22;6795;51.232;3.764;2023-10-09T10:27:21;21.60;99.90
13446;DHT22;6795;51.232;3.764;2023-10-09T10:30:26;21.60;99.90
13446;DHT22;6795;51.232;3.764;2023-10-09T10:32:59;21.60;99.90
13446;DHT22;6795;51.232;3.764;2023-10-09T10:35:37;21.70;99.90
13446;DHT22;6795;51.232;3.764;2023-10-09T10:38:26;21.80;99.90
13446;DHT22;6795;51.232;3.764;2023-10-09T10:41:16;21.90;99.90
13446;DHT22;6795;51.232;3.764;2023-10-09T10:43:45;21.90;99.90
13446;DHT22;6795;51.232;3.764;2023-10-09T10:46:26;22.00;99.90
13446;DHT22;6795;51.232;3.764;2023-10-09T10:49:07;22.10;99.90
13446;DHT22;6795;51.232;3.764;2023-10-09T10:51:48;22.20;99.90
13446;DHT22;6795;51.232;3.764;2023-10-09T10:54:29;22.30;99.90
13446;DHT22;6795;51.232;3.764;2023-10-09T10:57:19;22.40;99.90
13446;DHT22;6795;51.232;3.764;2023-10-09T10:59:47;22.40;99.90
13446;DHT22;6795;51.232;3.764;2023-10-09T11:02:29;22.40;99.90
13446;DHT22;6795;51.232;3.764;2023-10-09T11:04:58;22.60;99.90
13446;DHT22;6795;51.232;3.764;2023-10-09T11:07:42;22.60;99.90
13446;DHT22;6795;51.232;3.764;2023-10-09T11:10:11;22.70;99.90
13446;DHT22;6795;51.232;3.764;2023-10-09T11:12:55;22.70;99.90
13446;DHT22;6795;51.232;3.764;2023-10-09T11:15:38;22.50;99.90
13446;DHT22;6795;51.232;3.764;2023-10-09T11:18:14;22.50;99.90
13446;DHT22;6795;51.232;3.764;2023-10-09T11:20:49;22.40;99.90
13446;DHT22;6795;51.232;3.764;2023-10-09T11:23:46;22.40;99.90
13446;DHT22;6795;51.232;3.764;2023-10-09T11:26:47;22.60;99.90
13446;DHT22;6795;51.232;3.764;2023-10-09T11:29:23;22.60;99.90
13446;DHT22;6795;51.232;3.764;2023-10-09T11:32:00;22.60;99.90
13446;DHT22;6795;51.232;3.764;2023-10-09T11:34:28;22.60;99.90
13446;DHT22;6795;51.232;3.764;2023-10-09T11:37:00;22.60;99.90
13446;DHT22;6795;51.232;3.764;2023-10-09T11:39:31;22.70;99.90
13446;DHT22;6795;51.232;3.764;2023-10-09T11:42:08;22.60;99.90
13446;DHT22;6795;51.232;3.764;2023-10-09T11:44:41;22.60;99.90
13446;DHT22;6795;51.232;3.764;2023-10-09T11:47:12;22.70;99.90
13446;DHT22;6795;51.232;3.764;2023-10-09T11:49:54;22.60;99.90
13446;DHT22;6795;51.232;3.764;2023-10-09T11:52:54;22.70;99.90
13446;DHT22;6795;51.232;3.764;2023-10-09T11:55:36;22.90;99.90
13446;DHT22;6795;51.232;3.764;2023-10-09T11:58:05;23.00;99.90
13446;DHT22;6795;51.232;3.764;2023-10-09T12:00:36;22.90;99.90
13446;DHT22;6795;51.232;3.764;2023-10-09T12:03:14;23.00;99.90
13446;DHT22;6795;51.232;3.764;2023-10-09T12:05:44;23.20;99.90
13446;DHT22;6795;51.232;3.764;2023-10-09T12:08:12;23.20;99.90
13446;DHT22;6795;51.232;3.764;2023-10-09T12:10:43;23.30;99.90
13446;DHT22;6795;51.232;3.764;2023-10-09T12:13:11;23.30;99.90
13446;DHT22;6795;51.232;3.764;2023-10-09T12:15:44;22.90;99.90
13446;DHT22;6795;51.232;3.764;2023-10-09T12:18:14;22.80;99.90
13446;DHT22;6795;51.232;3.764;2023-10-09T12:20:46;22.80;99.90
13446;DHT22;6795;51.232;3.764;2023-10-09T12:23:18;22.90;99.90
13446;DHT22;6795;51.232;3.764;2023-10-09T12:25:49;22.90;99.90
13446;DHT22;6795;51.232;3.764;2023-10-09T12:28:17;22.70;99.90
13446;DHT22;6795;51.232;3.764;2023-10-09T12:30:49;22.80;99.90
13446;DHT22;6795;51.232;3.764;2023-10-09T12:33:19;22.80;99.90
13446;DHT22;6795;51.232;3.764;2023-10-09T12:35:57;22.90;99.90
13446;DHT22;6795;51.232;3.764;2023-10-09T12:38:28;23.00;99.90
13446;DHT22;6795;51.232;3.764;2023-10-09T12:41:03;23.10;99.90
13446;DHT22;6795;51.232;3.764;2023-10-09T12:43:35;23.10;99.90
13446;DHT22;6795;51.232;3.764;2023-10-09T12:46:08;23.10;99.90
13446;DHT22;6795;51.232;3.764;2023-10-09T12:48:36;23.00;99.90
13446;DHT22;6795;51.232;3.764;2023-10-09T12:51:04;22.90;99.90
13446;DHT22;6795;51.232;3.764;2023-10-09T12:53:36;22.80;99.90
13446;DHT22;6795;51.232;3.764;2023-10-09T12:56:08;22.90;99.90
13446;DHT22;6795;51.232;3.764;2023-10-09T12:58:39;23.10;99.90
13446;DHT22;6795;51.232;3.764;2023-10-09T13:01:10;23.10;99.90
13446;DHT22;6795;51.232;3.764;2023-10-09T13:03:39;23.20;99.90
13446;DHT22;6795;51.232;3.764;2023-10-09T13:06:08;23.20;99.90
13446;DHT22;6795;51.232;3.764;2023-10-09T13:08:38;23.10;99.90
13446;DHT22;6795;51.232;3.764;2023-10-09T13:11:09;23.20;99.90
13446;DHT22;6795;51.232;3.764;2023-10-09T13:13:41;23.00;99.90
13446;DHT22;6795;51.232;3.764;2023-10-09T13:16:13;23.00;99.90
13446;DHT22;6795;51.232;3.764;2023-10-09T13:18:50;23.10;99.90
13446;DHT22;6795;51.232;3.764;2023-10-09T13:21:19;23.10;99.90
13446;DHT22;6795;51.232;3.764;2023-10-09T13:23:48;23.20;99.90
13446;DHT22;6795;51.232;3.764;2023-10-09T13:26:19;23.20;99.90
13446;DHT22;6795;51.232;3.764;2023-10-09T13:29:00;23.30;99.90
13446;DHT22;6795;51.232;3.764;2023-10-09T13:31:32;23.00;99.90
13446;DHT22;6795;51.232;3.764;2023-10-09T13:34:02;23.00;99.90
13446;DHT22;6795;51.232;3.764;2023-10-09T13:36:34;23.10;99.90
13446;DHT22;6795;51.232;3.764;2023-10-09T13:39:03;23.10;99.90
13446;DHT22;6795;51.232;3.764;2023-10-09T13:41:50;23.10;99.90
13446;DHT22;6795;51.232;3.764;2023-10-09T13:44:26;23.10;99.90
13446;DHT22;6795;51.232;3.764;2023-10-09T13:46:57;23.00;99.90
13446;DHT22;6795;51.232;3.764;2023-10-09T13:49:26;23.10;99.90
13446;DHT22;6795;51.232;3.764;2023-10-09T13:51:58;23.00;99.90
13446;DHT22;6795;51.232;3.764;2023-10-09T13:54:29;23.00;99.90
13446;DHT22;6795;51.232;3.764;2023-10-09T13:57:07;22.80;99.90
13446;DHT22;6795;51.232;3.764;2023-10-09T13:59:38;22.70;99.90
13446;DHT22;6795;51.232;3.764;2023-10-09T14:02:12;22.60;99.90
13446;DHT22;6795;51.232;3.764;2023-10-09T14:04:46;22.60;99.90
13446;DHT22;6795;51.232;3.764;2023-10-09T14:07:19;22.50;99.90
13446;DHT22;6795;51.232;3.764;2023-10-09T14:09:48;22.30;99.90
13446;DHT22;6795;51.232;3.764;2023-10-09T14:12:35;22.30;99.90
13446;DHT22;6795;51.232;3.764;2023-10-09T14:15:08;22.20;99.90
13446;DHT22;6795;51.232;3.764;2023-10-09T14:17:40;22.20;99.90
13446;DHT22;6795;51.232;3.764;2023-10-09T14:20:10;22.20;99.90
13446;DHT22;6795;51.232;3.764;2023-10-09T14:23:05;22.10;99.90
13446;DHT22;6795;51.232;3.764;2023-10-09T14:25:35;22.10;99.90
13446;DHT22;6795;51.232;3.764;2023-10-09T14:28:07;22.00;99.90
13446;DHT22;6795;51.232;3.764;2023-10-09T14:30:36;21.90;99.90
13446;DHT22;6795;51.232;3.764;2023-10-09T14:33:10;21.70;99.90
13446;DHT22;6795;51.232;3.764;2023-10-09T14:35:41;21.50;99.90
13446;DHT22;6795;51.232;3.764;2023-10-09T14:38:11;21.40;99.90
13446;DHT22;6795;51.232;3.764;2023-10-09T14:40:43;21.30;99.90
13446;DHT22;6795;51.232;3.764;2023-10-09T14:43:18;21.30;99.90
13446;DHT22;6795;51.232;3.764;2023-10-09T14:45:47;21.30;99.90
13446;DHT22;6795;51.232;3.764;2023-10-09T14:48:17;21.30;99.90
13446;DHT22;6795;51.232;3.764;2023-10-09T14:50:47;21.20;99.90
13446;DHT22;6795;51.232;3.764;2023-10-09T14:53:17;21.10;99.90
13446;DHT22;6795;51.232;3.764;2023-10-09T14:55:54;20.90;99.90
13446;DHT22;6795;51.232;3.764;2023-10-09T14:58:23;20.80;99.90
13446;DHT22;6795;51.232;3.764;2023-10-09T15:00:52;20.70;99.90
13446;DHT22;6795;51.232;3.764;2023-10-09T15:03:21;20.60;99.90
13446;DHT22;6795;51.232;3.764;2023-10-09T15:05:50;20.70;99.90
13446;DHT22;6795;51.232;3.764;2023-10-09T15:08:20;20.70;99.90
13446;DHT22;6795;51.232;3.764;2023-10-09T15:10:49;20.60;99.90
13446;DHT22;6795;51.232;3.764;2023-10-09T15:13:18;20.70;99.90
13446;DHT22;6795;51.232;3.764;2023-10-09T15:15:47;20.60;99.90
13446;DHT22;6795;51.232;3.764;2023-10-09T15:18:18;20.60;99.90
13446;DHT22;6795;51.232;3.764;2023-10-09T15:20:48;20.50;99.90
13446;DHT22;6795;51.232;3.764;2023-10-09T15:23:20;20.50;99.90
13446;DHT22;6795;51.232;3.764;2023-10-09T15:25:48;20.40;99.90
13446;DHT22;6795;51.232;3.764;2023-10-09T15:28:20;20.50;99.90
13446;DHT22;6795;51.232;3.764;2023-10-09T15:30:51;20.40;99.90
13446;DHT22;6795;51.232;3.764;2023-10-09T15:33:20;20.40;99.90
13446;DHT22;6795;51.232;3.764;2023-10-09T15:35:49;20.30;99.90
13446;DHT22;6795;51.232;3.764;2023-10-09T15:38:19;20.20;99.90
13446;DHT22;6795;51.232;3.764;2023-10-09T15:40:48;20.10;99.90
13446;DHT22;6795;51.232;3.764;2023-10-09T15:43:16;20.00;99.90
13446;DHT22;6795;51.232;3.764;2023-10-09T15:45:45;19.90;99.90
13446;DHT22;6795;51.232;3.764;2023-10-09T15:48:15;19.80;99.90
13446;DHT22;6795;51.232;3.764;2023-10-09T15:50:48;19.70;99.90
13446;DHT22;6795;51.232;3.764;2023-10-09T15:53:20;19.60;99.90
13446;DHT22;6795;51.232;3.764;2023-10-09T15:55:51;19.60;99.90
13446;DHT22;6795;51.232;3.764;2023-10-09T15:58:24;19.50;99.90
13446;DHT22;6795;51.232;3.764;2023-10-09T16:00:53;19.40;99.90
13446;DHT22;6795;51.232;3.764;2023-10-09T16:03:21;19.40;99.90
13446;DHT22;6795;51.232;3.764;2023-10-09T16:05:51;19.40;99.90
13446;DHT22;6795;51.232;3.764;2023-10-09T16:08:21;19.30;99.90
13446;DHT22;6795;51.232;3.764;2023-10-09T16:10:50;19.30;99.90
13446;DHT22;6795;51.232;3.764;2023-10-09T16:13:18;19.10;99.90
13446;DHT22;6795;51.232;3.764;2023-10-09T16:15:48;19.10;99.90
13446;DHT22;6795;51.232;3.764;2023-10-09T16:18:16;19.00;99.90
13446;DHT22;6795;51.232;3.764;2023-10-09T16:20:47;18.90;99.90
13446;DHT22;6795;51.232;3.764;2023-10-09T16:23:16;18.80;99.90
13446;DHT22;6795;51.232;3.764;2023-10-09T16:25:49;18.70;99.90
13446;DHT22;6795;51.232;3.764;2023-10-09T16:28:19;18.60;99.90
13446;DHT22;6795;51.232;3.764;2023-10-09T16:30:48;18.50;99.90
13446;DHT22;6795;51.232;3.764;2023-10-09T16:33:16;18.40;99.90
13446;DHT22;6795;51.232;3.764;2023-10-09T16:35:48;18.40;99.90
13446;DHT22;6795;51.232;3.764;2023-10-09T16:38:18;18.30;99.90
13446;DHT22;6795;51.232;3.764;2023-10-09T16:40:54;18.10;99.90
13446;DHT22;6795;51.232;3.764;2023-10-09T16:43:23;18.00;99.90
13446;DHT22;6795;51.232;3.764;2023-10-09T16:45:54;17.90;99.90
13446;DHT22;6795;51.232;3.764;2023-10-09T16:48:26;17.80;99.90
13446;DHT22;6795;51.232;3.764;2023-10-09T16:50:57;17.70;99.90
13446;DHT22;6795;51.232;3.764;2023-10-09T16:53:34;17.60;99.90
13446;DHT22;6795;51.232;3.764;2023-10-09T16:56:05;17.40;99.90
13446;DHT22;6795;51.232;3.764;2023-10-09T16:58:38;17.20;99.90
13446;DHT22;6795;51.232;3.764;2023-10-09T17:01:09;17.10;99.90
13446;DHT22;6795;51.232;3.764;2023-10-09T17:03:39;16.90;99.90
13446;DHT22;6795;51.232;3.764;2023-10-09T17:08:39;16.80;99.90
13446;DHT22;6795;51.232;3.764;2023-10-09T17:11:11;16.50;99.90
13446;DHT22;6795;51.232;3.764;2023-10-09T17:16:12;16.50;99.90
13446;DHT22;6795;51.232;3.764;2023-10-09T17:18:45;16.40;99.90
13446;DHT22;6795;51.232;3.764;2023-10-09T17:21:15;16.30;99.90
13446;DHT22;6795;51.232;3.764;2023-10-09T17:23:43;16.20;99.90
13446;DHT22;6795;51.232;3.764;2023-10-09T17:33:47;16.10;99.90
13446;DHT22;6795;51.232;3.764;2023-10-09T17:36:16;15.70;99.90
13446;DHT22;6795;51.232;3.764;2023-10-09T17:38:45;15.60;99.90
13446;DHT22;6795;51.232;3.764;2023-10-09T17:41:19;15.50;99.90
13446;DHT22;6795;51.232;3.764;2023-10-09T17:43:49;15.50;99.90
13446;DHT22;6795;51.232;3.764;2023-10-09T17:46:18;15.40;99.90
13446;DHT22;6795;51.232;3.764;2023-10-09T17:48:47;15.40;99.90
13446;DHT22;6795;51.232;3.764;2023-10-09T17:51:15;15.40;99.90
13446;DHT22;6795;51.232;3.764;2023-10-09T17:53:45;15.40;99.90
13446;DHT22;6795;51.232;3.764;2023-10-09T17:56:14;15.40;99.90
13446;DHT22;6795;51.232;3.764;2023-10-09T17:58:47;15.40;99.90
13446;DHT22;6795;51.232;3.764;2023-10-09T18:01:18;15.40;99.90
13446;DHT22;6795;51.232;3.764;2023-10-09T18:03:52;15.30;99.90
13446;DHT22;6795;51.232;3.764;2023-10-09T18:06:20;15.10;99.90
13446;DHT22;6795;51.232;3.764;2023-10-09T18:08:49;15.00;99.90
13446;DHT22;6795;51.232;3.764;2023-10-09T18:11:17;14.90;99.90
13446;DHT22;6795;51.232;3.764;2023-10-09T18:13:47;15.00;99.90
13446;DHT22;6795;51.232;3.764;2023-10-09T18:16:18;15.00;99.90
13446;DHT22;6795;51.232;3.764;2023-10-09T18:18:48;15.00;99.90
13446;DHT22;6795;51.232;3.764;2023-10-09T18:21:17;14.80;99.90
13446;DHT22;6795;51.232;3.764;2023-10-09T18:41:19;14.60;99.90
13446;DHT22;6795;51.232;3.764;2023-10-09T18:43:51;14.20;99.90
13446;DHT22;6795;51.232;3.764;2023-10-09T18:48:51;14.20;99.90
13446;DHT22;6795;51.232;3.764;2023-10-09T18:51:19;13.90;99.90
13446;DHT22;6795;51.232;3.764;2023-10-09T18:53:47;13.90;99.90
